createdAt,value
2023-05-11T00:01:11.381Z,52.9
2023-05-11T00:06:48.323Z,52.9
2023-05-11T00:12:24.756Z,52.8
2023-05-11T00:17:45.846Z,52.8
2023-05-11T00:23:22.453Z,52.8
2023-05-11T00:28:58.896Z,52.7
2023-05-11T00:34:21.073Z,52.6
2023-05-11T00:39:59.582Z,52.6
2023-05-11T00:45:36.535Z,52.6
2023-05-11T00:51:12.849Z,52.6
2023-05-11T00:56:48.562Z,52.5
2023-05-11T01:02:25.219Z,52.5
2023-05-11T01:08:02.089Z,52.4
2023-05-11T01:13:38.287Z,52.4
2023-05-11T01:30:42.361Z,52.3
2023-05-11T01:36:37.020Z,52.3
2023-05-11T01:42:27.864Z,52.3
2023-05-11T01:48:19.863Z,52.2
2023-05-11T01:53:56.084Z,52.2
2023-05-11T01:59:47.361Z,52.1
2023-05-11T02:05:39.513Z,52.1
2023-05-11T02:11:31.397Z,52.1
2023-05-11T02:17:23.278Z,52
2023-05-11T02:23:15.021Z,52
2023-05-11T02:34:43.499Z,51.9
2023-05-11T02:40:35.796Z,51.9
2023-05-11T02:46:27.560Z,51.8
2023-05-11T02:52:20.036Z,51.8
2023-05-11T02:58:11.645Z,51.8
2023-05-11T03:04:06.641Z,51.7
2023-05-11T03:09:59.316Z,51.7
2023-05-11T03:15:51.091Z,51.6
2023-05-11T03:21:43.738Z,51.6
2023-05-11T03:27:35.136Z,51.6
2023-05-11T03:33:30.189Z,51.5
2023-05-11T03:39:21.661Z,51.5
2023-05-11T03:45:14.850Z,51.4
2023-05-11T03:51:07.397Z,51.4
2023-05-11T03:56:58.919Z,51.4
2023-05-11T04:02:50.900Z,51.3
2023-05-11T04:08:43.783Z,51.3
2023-05-11T04:14:35.175Z,51.3
2023-05-11T04:20:27.193Z,51.2
2023-05-11T04:26:19.046Z,51.2
2023-05-11T04:32:10.898Z,51.1
2023-05-11T04:38:01.602Z,51.1
2023-05-11T04:43:53.487Z,51.1
2023-05-11T04:49:45.414Z,51.1
2023-05-11T04:55:22.276Z,51
2023-05-11T05:00:58.283Z,50.9
2023-05-11T05:06:37.157Z,50.9
2023-05-11T05:12:12.798Z,50.9
2023-05-11T05:18:03.676Z,50.8
2023-05-11T05:23:55.955Z,50.8
2023-05-11T05:29:47.357Z,50.8
2023-05-11T05:35:24.048Z,50.7
2023-05-11T05:41:00.617Z,50.7
2023-05-11T05:46:54.592Z,50.6
2023-05-11T05:52:45.509Z,50.6
2023-05-11T05:58:39.207Z,50.6
2023-05-11T06:04:35.028Z,50.5
2023-05-11T06:10:44.616Z,50.5
2023-05-11T06:16:21.261Z,50.4
2023-05-11T06:22:12.855Z,50.4
2023-05-11T06:28:07.467Z,50.3
2023-05-11T06:33:29.039Z,50.3
2023-05-11T06:39:05.578Z,50.3
2023-05-11T06:44:57.560Z,50.3
2023-05-11T06:50:53.768Z,50.2
2023-05-11T06:56:45.353Z,50.1
2023-05-11T07:02:36.992Z,50.1
2023-05-11T07:08:29.343Z,50.1
2023-05-11T07:14:21.727Z,50
2023-05-11T07:19:58.923Z,50
2023-05-11T07:25:19.707Z,50
2023-05-11T07:30:57.064Z,49.9
2023-05-11T07:36:34.056Z,49.9
2023-05-11T07:42:29.003Z,49.9
2023-05-11T07:48:23.830Z,49.8
2023-05-11T07:54:31.028Z,49.8
2023-05-11T08:00:23.922Z,49.8
2023-05-11T08:06:17.044Z,49.7
2023-05-11T08:11:56.153Z,49.7
2023-05-11T08:17:48.487Z,49.6
2023-05-11T08:23:41.681Z,49.6
2023-05-11T08:29:19.864Z,49.6
2023-05-11T08:35:10.257Z,49.5
2023-05-11T08:41:04.122Z,49.5
2023-05-11T08:47:05.899Z,49.4
2023-05-11T08:53:06.447Z,49.4
2023-05-11T08:58:59.118Z,49.4
2023-05-11T09:04:51.643Z,49.3
2023-05-11T09:10:30.491Z,49.3
2023-05-11T09:16:45.285Z,49.3
2023-05-11T09:22:22.095Z,49.3
2023-05-11T09:27:58.631Z,49.2
2023-05-11T09:33:50.871Z,49.1
2023-05-11T09:39:39.493Z,49.1
2023-05-11T09:45:50.778Z,49.1
2023-05-11T09:51:49.752Z,49.1
2023-05-11T09:57:25.849Z,49
2023-05-11T10:03:02.319Z,48.9
2023-05-11T10:08:55.279Z,48.9
2023-05-11T10:14:50.763Z,48.9
2023-05-11T10:20:28.178Z,48.9
2023-05-11T10:26:21.798Z,48.8
2023-05-11T10:32:13.825Z,48.8
2023-05-11T10:38:05.517Z,48.8
2023-05-11T10:43:57.505Z,48.8
2023-05-11T10:49:52.699Z,48.7
2023-05-11T10:55:46.861Z,48.7
2023-05-11T11:01:39.736Z,48.6
2023-05-11T11:07:31.564Z,48.6
2023-05-11T11:13:23.887Z,48.8
2023-05-11T11:19:16.871Z,48.9
2023-05-11T11:25:07.690Z,48.9
2023-05-11T11:30:58.848Z,49.2
2023-05-11T11:36:50.509Z,49.6
2023-05-11T11:43:03.769Z,49.6
2023-05-11T11:48:57.523Z,49.6
2023-05-11T11:54:50.115Z,49.6
2023-05-11T12:00:40.945Z,49.6
2023-05-11T12:06:36.459Z,49.6
2023-05-11T12:12:28.568Z,49.6
2023-05-11T12:18:20.048Z,49.5
2023-05-11T12:24:11.715Z,49.5
2023-05-11T12:30:03.689Z,49.5
2023-05-11T12:35:55.360Z,49.4
2023-05-11T12:41:46.586Z,49.4
2023-05-11T12:47:38.291Z,49.4
2023-05-11T12:53:29.648Z,49.4
2023-05-11T12:59:21.173Z,49.3
2023-05-11T13:04:58.306Z,49.3
2023-05-11T13:10:49.680Z,49.3
2023-05-11T13:16:44.341Z,49.3
2023-05-11T13:22:36.721Z,49.2
2023-05-11T13:28:29.770Z,49.2
2023-05-11T13:34:18.432Z,49.2
2023-05-11T13:40:09.750Z,49.1
2023-05-11T13:46:01.485Z,49.1
2023-05-11T13:51:56.690Z,49.1
2023-05-11T13:57:48.657Z,49
2023-05-11T14:03:58.133Z,49
2023-05-11T14:10:05.055Z,48.9
2023-05-11T14:15:57.588Z,48.9
2023-05-11T14:21:51.695Z,48.9
2023-05-11T14:27:51.607Z,48.9
2023-05-11T14:33:46.458Z,48.8
2023-05-11T14:39:39.441Z,48.8
2023-05-11T14:45:31.806Z,48.8
2023-05-11T14:51:23.770Z,48.8
2023-05-11T14:57:16.074Z,48.7
2023-05-11T15:03:23.405Z,48.7
2023-05-11T15:09:31.399Z,48.6
2023-05-11T15:15:23.459Z,48.6
2023-05-11T15:21:17.078Z,48.6
2023-05-11T15:27:09.461Z,48.5
2023-05-11T15:33:04.681Z,48.5
2023-05-11T15:39:13.146Z,48.4
2023-05-11T15:45:06.630Z,48.4
2023-05-11T15:50:46.129Z,48.4
2023-05-11T15:56:39.078Z,48.4
2023-05-11T16:02:33.872Z,48.3
2023-05-11T16:08:28.275Z,48.3
2023-05-11T16:14:22.791Z,48.3
2023-05-11T16:20:20.336Z,48.3
2023-05-11T16:26:15.457Z,48.2
2023-05-11T16:32:25.268Z,48.2
2023-05-11T16:38:22.566Z,48.1
2023-05-11T16:44:16.372Z,48.1
2023-05-11T16:50:13.838Z,48.1
2023-05-11T16:56:13.692Z,48
2023-05-11T17:02:16.859Z,48
2023-05-11T17:08:17.058Z,47.9
2023-05-11T17:14:17.828Z,47.9
2023-05-11T17:20:18.595Z,47.9
2023-05-11T17:26:19.394Z,47.9
2023-05-11T17:33:01.828Z,47.8
2023-05-11T17:39:13.743Z,47.8
2023-05-11T17:45:15.688Z,47.8
2023-05-11T17:51:17.324Z,47.8
2023-05-11T17:57:18.029Z,47.7
2023-05-11T18:03:19.876Z,47.7
2023-05-11T18:09:35.171Z,47.6
2023-05-11T18:15:37.169Z,47.6
2023-05-11T18:21:24.547Z,47.6
2023-05-11T18:27:24.254Z,47.6
2023-05-11T18:33:25.242Z,47.5
2023-05-11T18:39:10.357Z,47.4
2023-05-11T18:45:11.460Z,47.4
2023-05-11T18:51:14.326Z,47.4
2023-05-11T18:57:30.557Z,47.4
2023-05-11T19:03:43.435Z,47.3
2023-05-11T19:09:45.435Z,47.3
2023-05-11T19:15:47.779Z,47.3
2023-05-11T19:21:50.122Z,47.3
2023-05-11T19:28:02.425Z,47.2
2023-05-11T19:34:04.153Z,47.2
2023-05-11T19:40:19.208Z,47.1
2023-05-11T19:46:57.655Z,47.1
2023-05-11T19:53:02.286Z,47.1
2023-05-11T20:03:01.060Z,47
2023-05-11T20:09:05.619Z,47
2023-05-11T20:15:06.512Z,46.9
2023-05-11T20:21:07.875Z,46.9
2023-05-11T20:27:09.110Z,46.9
2023-05-11T20:39:23.405Z,46.8
2023-05-11T20:45:22.900Z,46.8
2023-05-11T20:51:43.343Z,46.8
2023-05-11T20:57:44.055Z,46.7
2023-05-11T21:03:52.030Z,46.7
2023-05-11T21:09:50.270Z,46.6
2023-05-11T21:15:48.050Z,46.6
2023-05-11T21:21:46.312Z,46.6
2023-05-11T21:27:25.812Z,46.6
2023-05-11T21:33:04.362Z,46.6
2023-05-11T21:38:27.376Z,46.5
2023-05-11T21:44:04.129Z,46.5
2023-05-11T21:49:24.236Z,46.4
2023-05-11T21:55:00.526Z,46.4
2023-05-11T22:00:37.630Z,46.4
2023-05-11T22:06:14.527Z,46.4
2023-05-11T22:11:58.693Z,46.3
2023-05-11T22:17:34.534Z,46.3
2023-05-11T22:23:10.409Z,46.3
2023-05-11T22:28:46.819Z,46.3
2023-05-11T22:34:23.276Z,46.2
2023-05-11T22:39:43.710Z,46.2
2023-05-11T22:45:04.901Z,46.1
2023-05-11T22:50:26.109Z,46.1
2023-05-11T22:55:46.358Z,46.1
2023-05-11T23:00:52.793Z,46.1
2023-05-11T23:06:14.650Z,46
2023-05-11T23:11:50.254Z,46
2023-05-11T23:17:11.171Z,46
2023-05-11T23:22:32.828Z,45.9
2023-05-11T23:27:37.461Z,45.9
2023-05-11T23:32:59.250Z,45.9
2023-05-11T23:38:20.404Z,45.9
2023-05-11T23:43:41.323Z,45.8
2023-05-11T23:49:18.403Z,45.8
2023-05-11T23:54:39.182Z,45.8
